createdAt,value
2019-05-14T00:01:05.424Z,43.70
2019-05-14T00:03:35.592Z,43.70
2019-05-14T00:06:05.751Z,42.70
2019-05-14T00:08:35.893Z,46.30
2019-05-14T00:11:06.038Z,47.30
2019-05-14T00:13:36.332Z,50.00
2019-05-14T00:16:06.459Z,52.40
2019-05-14T00:18:37.816Z,53.60
2019-05-14T00:21:09.027Z,54.50
2019-05-14T00:23:39.187Z,56.40
2019-05-14T00:26:09.340Z,59.40
2019-05-14T00:28:42.290Z,63.50
2019-05-14T00:31:12.363Z,65.90
2019-05-14T00:33:42.611Z,67.90
2019-05-14T00:36:12.844Z,70.70
2019-05-14T00:38:42.991Z,73.10
2019-05-14T00:41:13.175Z,75.90
2019-05-14T00:43:43.327Z,77.20
2019-05-14T00:46:13.499Z,82.60
2019-05-14T00:48:43.655Z,81.80
2019-05-14T00:51:13.928Z,81.60
2019-05-14T00:53:44.094Z,83.40
2019-05-14T00:56:14.255Z,84.80
2019-05-14T00:58:45.462Z,88.10
2019-05-14T01:01:15.612Z,90.10
2019-05-14T01:03:45.783Z,91.80
2019-05-14T01:06:15.955Z,90.80
2019-05-14T01:08:46.126Z,93.20
2019-05-14T01:11:18.099Z,93.10
2019-05-14T01:13:49.182Z,94.30
2019-05-14T01:16:22.218Z,97.20
2019-05-14T01:18:51.776Z,97.50
2019-05-14T01:21:22.082Z,97.80
2019-05-14T01:23:52.374Z,99.90
2019-05-14T01:26:22.540Z,99.90
2019-05-14T01:28:52.803Z,99.90
2019-05-14T01:31:23.106Z,99.90
2019-05-14T01:33:53.272Z,99.90
2019-05-14T01:36:23.442Z,99.90
2019-05-14T01:38:53.596Z,99.90
2019-05-14T01:41:23.775Z,99.90
2019-05-14T01:43:56.423Z,99.90
2019-05-14T01:46:26.606Z,99.90
2019-05-14T01:48:56.762Z,99.90
2019-05-14T01:51:26.921Z,99.90
2019-05-14T01:53:57.066Z,99.90
2019-05-14T01:56:27.228Z,99.90
2019-05-14T01:58:57.380Z,99.90
2019-05-14T02:01:27.558Z,99.90
2019-05-14T02:03:57.715Z,99.90
2019-05-14T02:06:27.883Z,99.90
2019-05-14T02:08:58.028Z,99.90
2019-05-14T02:11:28.200Z,99.90
2019-05-14T02:13:58.369Z,99.90
2019-05-14T02:16:28.507Z,99.90
2019-05-14T02:18:58.675Z,99.90
2019-05-14T02:21:28.867Z,99.90
2019-05-14T02:24:02.163Z,99.90
2019-05-14T02:26:32.415Z,99.90
2019-05-14T02:29:02.554Z,99.90
2019-05-14T02:31:32.713Z,99.90
2019-05-14T02:34:02.864Z,99.90
2019-05-14T02:36:33.023Z,99.90
2019-05-14T02:39:03.383Z,99.90
2019-05-14T02:41:33.560Z,99.90
2019-05-14T02:44:03.721Z,99.90
2019-05-14T02:46:33.909Z,99.90
2019-05-14T02:49:04.043Z,99.90
2019-05-14T02:51:34.221Z,99.90
2019-05-14T02:54:04.367Z,99.90
2019-05-14T02:56:34.530Z,99.90
2019-05-14T02:59:05.803Z,99.90
2019-05-14T03:01:39.993Z,99.90
2019-05-14T03:04:09.102Z,99.90
2019-05-14T03:06:42.584Z,99.90
2019-05-14T03:09:12.753Z,99.90
2019-05-14T03:11:43.028Z,99.90
2019-05-14T03:14:13.188Z,99.90
2019-05-14T03:16:43.334Z,99.90
2019-05-14T03:19:14.593Z,99.90
2019-05-14T03:21:44.851Z,99.90
2019-05-14T03:24:15.017Z,99.90
2019-05-14T03:26:45.403Z,99.90
2019-05-14T03:29:19.617Z,99.90
2019-05-14T03:31:52.948Z,99.90
2019-05-14T03:34:22.508Z,99.90
2019-05-14T03:36:53.681Z,99.90
2019-05-14T03:39:25.107Z,99.90
2019-05-14T03:41:59.047Z,99.90
2019-05-14T03:44:29.502Z,99.90
2019-05-14T03:47:04.760Z,99.90
2019-05-14T03:49:31.572Z,99.90
2019-05-14T03:52:01.743Z,99.90
2019-05-14T03:54:31.905Z,99.90
2019-05-14T03:57:02.145Z,99.90
2019-05-14T03:59:32.376Z,99.90
2019-05-14T04:02:02.750Z,99.90
2019-05-14T04:04:32.892Z,99.90
2019-05-14T04:07:04.411Z,99.90
2019-05-14T04:09:35.041Z,99.90
2019-05-14T04:12:09.707Z,99.90
2019-05-14T04:14:42.992Z,99.90
2019-05-14T04:17:23.583Z,99.90
2019-05-14T04:19:50.167Z,99.90
2019-05-14T04:22:23.511Z,99.90
2019-05-14T04:24:56.092Z,99.90
2019-05-14T04:27:30.140Z,99.90
2019-05-14T04:30:02.211Z,99.90
2019-05-14T04:32:32.668Z,99.90
2019-05-14T04:35:03.159Z,99.90
2019-05-14T04:37:33.512Z,99.90
2019-05-14T04:40:04.580Z,99.90
2019-05-14T04:42:34.808Z,99.90
2019-05-14T04:45:06.133Z,99.90
2019-05-14T04:47:41.019Z,99.90
2019-05-14T04:50:10.900Z,99.90
2019-05-14T04:52:41.342Z,99.90
2019-05-14T04:55:11.491Z,99.90
2019-05-14T04:57:41.639Z,99.90
2019-05-14T05:00:12.699Z,99.90
2019-05-14T05:02:43.153Z,99.90
2019-05-14T05:05:13.422Z,99.90
2019-05-14T05:07:43.582Z,99.90
2019-05-14T05:10:13.850Z,99.90
2019-05-14T05:12:44.018Z,99.90
2019-05-14T05:15:14.295Z,99.90
2019-05-14T05:17:51.735Z,99.90
2019-05-14T05:20:19.106Z,98.00
2019-05-14T05:22:48.667Z,73.60
2019-05-14T05:25:20.175Z,51.80
2019-05-14T05:27:50.363Z,34.20
2019-05-14T05:30:20.614Z,30.60
2019-05-14T05:32:50.767Z,27.40
2019-05-14T05:35:20.923Z,28.10
2019-05-14T05:37:51.063Z,35.40
2019-05-14T05:40:21.231Z,49.70
2019-05-14T05:42:51.420Z,72.90
2019-05-14T05:45:21.620Z,97.30
2019-05-14T05:47:57.851Z,99.90
2019-05-14T05:50:23.635Z,99.90
2019-05-14T05:52:53.941Z,99.90
2019-05-14T05:55:24.244Z,99.90
2019-05-14T05:57:54.399Z,99.90
2019-05-14T06:00:39.457Z,99.90
2019-05-14T06:03:10.778Z,99.90
2019-05-14T06:05:40.532Z,99.90
2019-05-14T06:08:10.845Z,99.90
2019-05-14T06:10:41.079Z,99.90
2019-05-14T06:13:13.924Z,98.70
2019-05-14T06:15:47.898Z,99.80
2019-05-14T06:18:21.079Z,95.70
2019-05-14T06:20:49.171Z,92.40
2019-05-14T06:23:19.055Z,81.00
2019-05-14T06:25:49.420Z,85.70
2019-05-14T06:28:20.874Z,91.40
2019-05-14T06:30:51.436Z,92.80
2019-05-14T06:33:21.592Z,94.70
2019-05-14T06:35:51.749Z,99.90
2019-05-14T06:38:21.915Z,98.20
2019-05-14T06:40:52.072Z,92.50
2019-05-14T06:43:22.356Z,88.70
2019-05-14T06:45:53.576Z,75.00
2019-05-14T06:48:30.273Z,85.10
2019-05-14T06:50:58.042Z,94.80
2019-05-14T06:53:29.070Z,91.20
2019-05-14T06:55:59.360Z,85.30
2019-05-14T06:58:29.991Z,74.60
2019-05-14T07:01:00.296Z,73.90
2019-05-14T07:03:30.452Z,75.60
2019-05-14T07:06:00.616Z,83.00
2019-05-14T07:08:30.772Z,87.80
2019-05-14T07:11:01.028Z,75.90
2019-05-14T07:13:31.204Z,72.80
2019-05-14T07:16:01.360Z,81.10
2019-05-14T07:18:45.429Z,72.30
2019-05-14T07:21:04.451Z,75.70
2019-05-14T07:23:34.631Z,77.30
2019-05-14T07:26:04.787Z,80.80
2019-05-14T07:28:34.952Z,78.10
2019-05-14T07:31:05.090Z,72.70
2019-05-14T07:33:35.243Z,73.90
2019-05-14T07:36:05.412Z,67.00
2019-05-14T07:38:35.564Z,68.60
2019-05-14T07:41:05.765Z,69.80
2019-05-14T07:43:35.958Z,63.50
2019-05-14T07:46:08.309Z,60.70
2019-05-14T07:48:39.225Z,55.20
2019-05-14T07:51:10.836Z,57.30
2019-05-14T07:53:42.506Z,55.20
2019-05-14T07:56:12.936Z,52.00
2019-05-14T07:58:43.139Z,57.10
2019-05-14T08:01:13.283Z,52.40
2019-05-14T08:03:43.447Z,51.40
2019-05-14T08:06:13.600Z,47.60
2019-05-14T08:08:43.759Z,40.40
2019-05-14T08:11:13.963Z,42.40
2019-05-14T08:13:44.112Z,43.60
2019-05-14T08:16:14.323Z,44.00
2019-05-14T08:18:44.478Z,40.20
2019-05-14T08:21:14.664Z,40.80
2019-05-14T08:23:44.837Z,36.70
2019-05-14T08:26:14.996Z,35.30
2019-05-14T08:28:45.171Z,35.50
2019-05-14T08:31:15.309Z,33.20
2019-05-14T08:33:45.492Z,30.70
2019-05-14T08:36:18.132Z,27.50
2019-05-14T08:38:50.017Z,29.30
2019-05-14T08:41:20.048Z,31.30
2019-05-14T08:43:50.391Z,27.20
2019-05-14T08:46:20.575Z,27.30
2019-05-14T08:48:50.725Z,26.90
2019-05-14T08:51:22.373Z,29.00
2019-05-14T08:53:52.577Z,28.30
2019-05-14T08:56:22.716Z,29.50
2019-05-14T08:58:52.871Z,28.30
2019-05-14T09:01:23.032Z,26.80
2019-05-14T09:03:53.188Z,25.80
2019-05-14T09:06:23.421Z,27.90
2019-05-14T09:08:53.585Z,30.20
2019-05-14T09:11:25.968Z,28.50
2019-05-14T09:13:55.662Z,24.30
2019-05-14T09:16:39.372Z,22.20
2019-05-14T09:18:58.170Z,19.70
2019-05-14T09:21:29.682Z,21.80
2019-05-14T09:23:59.996Z,18.60
2019-05-14T09:26:30.170Z,13.00
2019-05-14T09:29:00.340Z,5.80
2019-05-14T09:31:30.520Z,1.00
2019-05-14T09:34:00.784Z,1.00
2019-05-14T09:36:31.001Z,1.00
2019-05-14T09:39:02.619Z,1.00
2019-05-14T09:41:33.237Z,1.00
2019-05-14T09:44:03.482Z,1.00
2019-05-14T09:46:33.648Z,1.00
2019-05-14T09:49:03.929Z,1.00
2019-05-14T09:51:34.101Z,1.00
2019-05-14T09:54:04.472Z,1.00
2019-05-14T09:56:34.711Z,1.00
2019-05-14T09:59:04.876Z,1.00
2019-05-14T10:01:35.103Z,1.00
2019-05-14T10:04:05.251Z,1.00
2019-05-14T10:06:35.505Z,1.00
2019-05-14T10:09:08.601Z,99.90
2019-05-14T10:11:39.112Z,99.90
2019-05-14T10:14:09.255Z,99.90
2019-05-14T10:16:39.505Z,99.90
2019-05-14T10:19:09.651Z,99.90
2019-05-14T10:21:39.867Z,99.90
2019-05-14T10:24:10.146Z,99.90
2019-05-14T10:26:40.324Z,99.90
2019-05-14T10:29:10.507Z,99.90
2019-05-14T10:31:40.764Z,1.00
2019-05-14T10:34:10.936Z,1.00
2019-05-14T10:36:41.080Z,1.00
2019-05-14T10:39:11.248Z,1.00
2019-05-14T10:41:41.572Z,1.00
2019-05-14T10:44:11.756Z,1.00
2019-05-14T10:46:41.919Z,1.00
2019-05-14T10:49:19.238Z,1.00
2019-05-14T10:51:43.990Z,99.90
2019-05-14T10:54:24.301Z,99.90
2019-05-14T10:56:46.139Z,99.90
2019-05-14T10:59:18.373Z,99.90
2019-05-14T11:01:48.175Z,99.90
2019-05-14T11:04:18.968Z,99.90
2019-05-14T11:06:49.308Z,99.90
2019-05-14T11:09:19.638Z,99.90
2019-05-14T11:11:49.832Z,99.90
2019-05-14T11:14:21.804Z,99.90
2019-05-14T11:16:51.948Z,99.90
2019-05-14T11:19:22.260Z,99.90
2019-05-14T11:21:52.407Z,99.90
2019-05-14T11:24:22.596Z,99.90
2019-05-14T11:26:52.779Z,99.90
2019-05-14T11:29:22.960Z,99.90
2019-05-14T11:31:53.148Z,99.90
2019-05-14T11:34:23.413Z,99.90
2019-05-14T11:36:53.604Z,99.90
2019-05-14T11:39:23.790Z,99.90
2019-05-14T11:41:54.020Z,99.90
2019-05-14T11:44:24.197Z,99.90
2019-05-14T11:46:57.849Z,99.90
2019-05-14T11:49:26.264Z,99.90
2019-05-14T11:52:04.148Z,99.90
2019-05-14T11:54:29.214Z,99.90
2019-05-14T11:56:59.565Z,99.90
2019-05-14T11:59:29.862Z,99.90
2019-05-14T12:02:00.014Z,99.90
2019-05-14T12:04:30.183Z,99.90
2019-05-14T12:07:00.345Z,99.90
2019-05-14T12:09:30.531Z,99.90
2019-05-14T12:12:00.683Z,99.90
2019-05-14T12:14:30.965Z,99.90
2019-05-14T12:17:01.136Z,99.90
2019-05-14T12:19:31.311Z,99.90
2019-05-14T12:22:07.469Z,99.90
2019-05-14T12:24:33.376Z,99.90
2019-05-14T12:27:03.536Z,99.90
2019-05-14T12:29:33.833Z,99.90
2019-05-14T12:32:04.036Z,99.90
2019-05-14T12:34:34.217Z,99.90
2019-05-14T12:37:04.366Z,99.90
2019-05-14T12:39:34.591Z,99.90
2019-05-14T12:42:04.838Z,99.90
2019-05-14T12:44:37.397Z,99.90
2019-05-14T12:47:09.254Z,99.90
2019-05-14T12:49:38.970Z,99.90
2019-05-14T12:52:21.047Z,99.90
2019-05-14T12:54:41.099Z,99.90
2019-05-14T12:57:11.323Z,99.90
2019-05-14T12:59:41.505Z,99.90
2019-05-14T13:02:11.682Z,99.90
2019-05-14T13:04:41.859Z,99.90
2019-05-14T13:07:12.053Z,99.90
2019-05-14T13:09:42.254Z,99.90
2019-05-14T13:12:13.524Z,99.90
2019-05-14T13:14:44.031Z,99.90
2019-05-14T13:17:14.368Z,99.90
2019-05-14T13:19:44.553Z,99.90
2019-05-14T13:22:18.358Z,99.90
2019-05-14T13:24:49.075Z,99.90
2019-05-14T13:27:19.126Z,99.90
2019-05-14T13:29:49.507Z,99.90
2019-05-14T13:32:19.800Z,99.90
2019-05-14T13:34:50.185Z,99.90
2019-05-14T13:37:20.369Z,99.90
2019-05-14T13:39:53.082Z,99.90
2019-05-14T13:42:22.443Z,99.90
2019-05-14T13:44:52.609Z,99.90
2019-05-14T13:47:22.755Z,99.90
2019-05-14T13:49:52.932Z,99.90
2019-05-14T13:52:23.117Z,99.90
2019-05-14T13:54:53.278Z,99.90
2019-05-14T13:57:23.510Z,99.90
2019-05-14T13:59:53.697Z,99.90
2019-05-14T14:02:27.917Z,99.90
2019-05-14T14:04:58.832Z,99.90
2019-05-14T14:07:28.721Z,99.90
2019-05-14T14:09:59.184Z,99.90
2019-05-14T14:12:32.359Z,99.90
2019-05-14T14:15:01.577Z,99.90
2019-05-14T14:17:33.670Z,99.90
2019-05-14T14:20:04.251Z,99.90
2019-05-14T14:22:34.569Z,99.90
2019-05-14T14:25:05.107Z,99.90
2019-05-14T14:27:35.258Z,99.90
2019-05-14T14:30:05.795Z,99.90
2019-05-14T14:32:35.983Z,99.90
2019-05-14T14:35:08.763Z,99.90
2019-05-14T14:37:39.813Z,99.90
2019-05-14T14:40:11.244Z,99.90
2019-05-14T14:42:41.684Z,99.90
2019-05-14T14:45:13.219Z,99.90
2019-05-14T14:47:43.421Z,99.90
2019-05-14T14:50:13.707Z,99.90
2019-05-14T14:52:43.881Z,99.90
2019-05-14T14:55:14.310Z,99.90
2019-05-14T14:57:46.169Z,99.90
2019-05-14T15:00:19.200Z,99.90
2019-05-14T15:02:49.547Z,1.00
2019-05-14T15:05:20.339Z,99.90
2019-05-14T15:07:50.833Z,1.00
2019-05-14T15:10:21.024Z,17.40
2019-05-14T15:12:51.228Z,1.00
2019-05-14T15:15:22.588Z,99.90
2019-05-14T15:17:52.816Z,99.90
2019-05-14T15:20:23.016Z,1.00
2019-05-14T15:22:53.222Z,99.90
2019-05-14T15:25:24.531Z,99.90
2019-05-14T15:27:54.792Z,99.90
2019-05-14T15:30:25.059Z,99.90
2019-05-14T15:32:55.318Z,99.90
2019-05-14T15:35:25.504Z,99.90
2019-05-14T15:37:55.773Z,99.90
2019-05-14T15:40:28.637Z,99.90
2019-05-14T15:42:58.971Z,99.90
2019-05-14T15:45:29.855Z,99.90
2019-05-14T15:48:03.669Z,99.90
2019-05-14T15:50:32.840Z,99.90
2019-05-14T15:53:03.278Z,99.90
2019-05-14T15:55:33.550Z,99.90
2019-05-14T15:58:03.833Z,99.90
2019-05-14T16:00:34.029Z,99.90
2019-05-14T16:03:04.234Z,99.90
2019-05-14T16:05:34.460Z,99.90
2019-05-14T16:08:04.619Z,99.90
2019-05-14T16:10:34.862Z,99.90
2019-05-14T16:13:05.034Z,99.90
2019-05-14T16:15:35.256Z,99.90
2019-05-14T16:18:11.184Z,99.90
2019-05-14T16:20:39.259Z,99.90
2019-05-14T16:23:10.873Z,99.90
2019-05-14T16:25:41.358Z,99.90
2019-05-14T16:28:12.593Z,99.90
2019-05-14T16:30:43.064Z,99.90
2019-05-14T16:33:13.259Z,99.90
2019-05-14T16:35:43.429Z,99.90
2019-05-14T16:38:13.613Z,99.90
2019-05-14T16:40:43.802Z,99.90
2019-05-14T16:43:13.975Z,99.90
2019-05-14T16:45:44.314Z,99.90
2019-05-14T16:48:14.597Z,99.90
2019-05-14T16:50:44.795Z,99.90
2019-05-14T16:53:15.030Z,99.90
2019-05-14T16:55:45.210Z,99.90
2019-05-14T16:58:15.375Z,99.90
2019-05-14T17:00:45.632Z,99.90
2019-05-14T17:03:18.864Z,99.90
2019-05-14T17:05:48.732Z,99.90
2019-05-14T17:08:20.254Z,99.90
2019-05-14T17:10:50.453Z,99.90
2019-05-14T17:13:20.671Z,99.90
2019-05-14T17:15:50.819Z,99.90
2019-05-14T17:18:21.010Z,99.90
2019-05-14T17:20:51.271Z,99.90
2019-05-14T17:23:21.505Z,99.90
2019-05-14T17:25:51.676Z,99.90
2019-05-14T17:28:21.875Z,99.90
2019-05-14T17:30:52.034Z,99.90
2019-05-14T17:33:22.215Z,99.90
2019-05-14T17:35:52.488Z,99.90
2019-05-14T17:38:22.680Z,99.90
2019-05-14T17:40:52.912Z,99.90
2019-05-14T17:43:23.398Z,99.90
2019-05-14T17:45:53.753Z,99.90
2019-05-14T17:48:23.911Z,99.90
2019-05-14T17:50:54.202Z,99.90
2019-05-14T17:53:24.471Z,99.90
2019-05-14T17:55:54.760Z,99.90
2019-05-14T17:58:24.994Z,99.90
2019-05-14T18:00:55.239Z,99.90
2019-05-14T18:03:25.655Z,99.90
2019-05-14T18:05:58.202Z,99.90
2019-05-14T18:08:29.975Z,99.90
2019-05-14T18:11:01.740Z,99.90
2019-05-14T18:13:32.475Z,99.90
2019-05-14T18:16:02.741Z,99.90
2019-05-14T18:18:32.982Z,99.90
2019-05-14T18:21:03.248Z,99.90
2019-05-14T18:23:33.545Z,99.90
2019-05-14T18:26:08.690Z,99.90
2019-05-14T18:28:35.592Z,99.90
2019-05-14T18:31:09.188Z,99.90
2019-05-14T18:33:39.876Z,99.90
2019-05-14T18:36:10.504Z,99.90
2019-05-14T18:38:40.780Z,99.90
2019-05-14T18:41:11.013Z,99.90
2019-05-14T18:43:41.348Z,99.90
2019-05-14T18:46:12.773Z,99.90
2019-05-14T18:48:44.841Z,99.90
2019-05-14T18:51:14.977Z,99.90
2019-05-14T18:53:45.323Z,99.90
2019-05-14T18:56:23.070Z,99.90
2019-05-14T18:58:48.995Z,99.90
2019-05-14T19:01:19.783Z,99.90
2019-05-14T19:03:50.138Z,99.90
2019-05-14T19:06:20.642Z,99.90
2019-05-14T19:08:50.818Z,99.90
2019-05-14T19:11:21.063Z,99.90
2019-05-14T19:13:51.382Z,99.90
2019-05-14T19:16:21.774Z,99.90
2019-05-14T19:18:52.101Z,99.90
2019-05-14T19:21:22.411Z,99.90
2019-05-14T19:23:52.623Z,99.90
2019-05-14T19:26:33.480Z,99.90
2019-05-14T19:28:54.695Z,99.90
2019-05-14T19:31:24.998Z,99.90
2019-05-14T19:33:55.220Z,99.90
2019-05-14T19:36:25.560Z,1.00
2019-05-14T19:38:55.702Z,99.90
2019-05-14T19:41:27.772Z,1.00
2019-05-14T19:43:59.580Z,1.00
2019-05-14T19:46:31.072Z,1.00
2019-05-14T19:49:01.309Z,1.00
2019-05-14T19:51:31.500Z,1.00
2019-05-14T19:54:01.726Z,99.90
2019-05-14T19:56:32.201Z,1.00
2019-05-14T19:59:02.450Z,1.00
2019-05-14T20:01:33.716Z,1.00
2019-05-14T20:04:05.985Z,1.00
2019-05-14T20:06:38.618Z,1.00
2019-05-14T20:09:09.916Z,1.00
2019-05-14T20:11:43.273Z,1.00
2019-05-14T20:14:13.511Z,1.00
2019-05-14T20:16:43.772Z,1.00
2019-05-14T20:19:13.923Z,1.00
2019-05-14T20:21:44.188Z,1.00
2019-05-14T20:24:15.372Z,1.00
2019-05-14T20:26:46.375Z,1.00
2019-05-14T20:29:19.463Z,6.90
2019-05-14T20:31:49.412Z,5.90
2019-05-14T20:34:19.616Z,12.90
2019-05-14T20:36:49.861Z,7.60
2019-05-14T20:39:20.056Z,8.40
2019-05-14T20:41:50.349Z,15.80
2019-05-14T20:44:20.577Z,16.70
2019-05-14T20:46:52.376Z,12.80
2019-05-14T20:49:22.612Z,22.40
2019-05-14T20:51:52.942Z,20.40
2019-05-14T20:54:24.588Z,21.70
2019-05-14T20:56:58.645Z,23.80
2019-05-14T20:59:29.012Z,28.60
2019-05-14T21:01:59.239Z,32.00
2019-05-14T21:04:31.970Z,34.40
2019-05-14T21:07:02.191Z,42.50
2019-05-14T21:09:33.458Z,44.80
2019-05-14T21:12:03.637Z,34.90
2019-05-14T21:14:33.832Z,40.30
2019-05-14T21:17:04.058Z,43.20
2019-05-14T21:19:34.358Z,44.30
2019-05-14T21:22:04.515Z,51.50
2019-05-14T21:24:34.789Z,58.50
2019-05-14T21:27:04.943Z,59.40
2019-05-14T21:29:35.211Z,59.30
2019-05-14T21:32:05.380Z,58.30
2019-05-14T21:34:37.966Z,57.30
2019-05-14T21:37:08.962Z,62.40
2019-05-14T21:39:41.037Z,59.20
2019-05-14T21:42:12.192Z,70.10
2019-05-14T21:44:42.606Z,69.50
2019-05-14T21:47:12.769Z,74.80
2019-05-14T21:49:42.816Z,70.90
2019-05-14T21:52:12.888Z,64.30
2019-05-14T21:54:43.089Z,81.70
2019-05-14T21:57:13.175Z,74.60
2019-05-14T21:59:43.235Z,67.80
2019-05-14T22:02:24.757Z,67.10
2019-05-14T22:04:45.523Z,75.90
2019-05-14T22:07:15.680Z,78.10
2019-05-14T22:09:45.806Z,76.70
2019-05-14T22:12:15.872Z,75.90
2019-05-14T22:14:48.072Z,77.30
2019-05-14T22:17:17.758Z,78.70
2019-05-14T22:19:49.193Z,76.70
2019-05-14T22:22:19.485Z,68.60
2019-05-14T22:24:50.597Z,69.10
2019-05-14T22:27:20.762Z,69.20
2019-05-14T22:29:50.991Z,95.30
2019-05-14T22:32:21.232Z,97.40
2019-05-14T22:34:51.388Z,90.20
2019-05-14T22:37:21.575Z,90.00
2019-05-14T22:39:51.732Z,81.80
2019-05-14T22:42:21.913Z,74.30
2019-05-14T22:44:52.084Z,73.20
2019-05-14T22:47:22.221Z,74.90
2019-05-14T22:49:52.395Z,75.60
2019-05-14T22:52:22.579Z,77.80
2019-05-14T22:54:52.860Z,68.60
2019-05-14T22:57:23.040Z,72.00
2019-05-14T22:59:53.203Z,67.30
2019-05-14T23:02:23.377Z,71.10
2019-05-14T23:04:53.525Z,69.00
2019-05-14T23:07:23.792Z,67.00
2019-05-14T23:09:53.919Z,70.90
2019-05-14T23:12:24.078Z,76.80
2019-05-14T23:14:54.244Z,80.40
2019-05-14T23:17:24.385Z,81.80
2019-05-14T23:19:54.552Z,98.50
2019-05-14T23:22:24.683Z,92.60
2019-05-14T23:24:54.844Z,97.40
2019-05-14T23:27:25.315Z,99.30
2019-05-14T23:29:55.468Z,99.90
2019-05-14T23:32:25.656Z,99.90
2019-05-14T23:34:58.291Z,99.40
2019-05-14T23:37:29.126Z,97.90
2019-05-14T23:40:00.209Z,99.70
2019-05-14T23:42:30.371Z,98.70
2019-05-14T23:45:00.527Z,96.90
2019-05-14T23:47:30.708Z,96.80
2019-05-14T23:50:00.841Z,96.40
2019-05-14T23:52:30.998Z,96.00
2019-05-14T23:55:01.295Z,97.00
2019-05-14T23:57:31.427Z,99.90
